Kailua, HI

10:03 AM HST on February 22, 2017 (GMT -1000)
Kailua Beach | | Change Station

Elev 10 ft 21.40 °N, 157.73 °W | Updated 0 second ago

Partly Cloudy
Partly Cloudy
73.0 °F
Feels Like 74 °F
N
18.0
Wind Variable Wind from ENE
Gusts 20.0 mph

Today
High -- | Low -- °F
--% Chance of Precip.
Yesterday
High -- | Low -- °F
Precip. -- in
Pressure 30.26 in
Visibility 10.0 miles
Clouds Few 2800 ft
Few 5000 ft
Heat Index 74 °F
Dew Point 65 °F
Humidity 75%
Rainfall 0.00 in
Snow Depth Not available.
6:56 AM 6:32 PM
Waning Crescent, 15% visible
METAR PHNL 221953Z 07017G22KT 10SM FEW028 FEW050 25/14 A3026 RMK AO2 SLP246 T02500139 $
Pressure 30.26 in
Visibility 10.0 miles
Clouds Few 2800 ft
Few 5000 ft
Heat Index 74 °F
Dew Point 65 °F
Humidity 75%
Rainfall 0.00 in
Snow Depth Not available.
6:56 AM 6:32 PM
Waning Crescent, 15% visible
METAR PHNL 221953Z 07017G22KT 10SM FEW028 FEW050 25/14 A3026 RMK AO2 SLP246 T02500139 $

Get Your Daily Forecast Email!

Thanks for signing up!

Be on the lookout for a verification email in your inbox.

You'll start receiving the daily forecast at 8 AM.

×

10-Day Weather Forecast

Almanac

Astronomy

Feb. 22, 2017 Rise Set
Actual Time
Civil Twilight
Nautical Twilight
Astronomical Twilight
Moon
Length of Visible Light
Length of Day
Tomorrow will be .
, % of the Moon is Illuminated

Today's Extremes

State Highs State Lows

Community

WunderPhotos

Upload Photos

1,962,540 photos uploaded!

WunderBlog® & News

Nearby

Air Quality

  Air Quality AQ Index Pollutant
Not available.

Snow Depth

Station Depth Elevation

Earthquake Activity

City Distance Mag. Time & Date
Minimum magnitude displayed is 2.5.

Coastal Water Temperatures

Place Temperature

Stations

Nearby Weather Stations

Station Location Temp. Windchill Dew Point Humidity Wind Precip. Elev Updated Type
                   

Watches & Warnings

There are currently no watches in effect.